sensor_id;sensor_type;location;lat;lon;timestamp;pressure;altitude;pressure_sealevel;temperature;humidity
8059;BME280;4072;42.668;23.396;2023-07-20T00:01:24;94785.84;;;25.24;87.37
8059;BME280;4072;42.668;23.396;2023-07-20T00:03:52;94779.78;;;25.33;87.37
8059;BME280;4072;42.668;23.396;2023-07-20T00:06:24;94788.78;;;25.26;88.09
8059;BME280;4072;42.668;23.396;2023-07-20T00:08:55;94751.59;;;24.91;88.59
8059;BME280;4072;42.668;23.396;2023-07-20T00:11:26;94786.25;;;24.92;90.39
8059;BME280;4072;42.668;23.396;2023-07-20T00:13:55;94779.91;;;24.77;92.80
8059;BME280;4072;42.668;23.396;2023-07-20T00:16:23;94795.63;;;24.82;96.76
8059;BME280;4072;42.668;23.396;2023-07-20T00:18:51;94798.78;;;24.86;97.78
8059;BME280;4072;42.668;23.396;2023-07-20T00:21:19;94788.75;;;24.75;99.73
8059;BME280;4072;42.668;23.396;2023-07-20T00:23:49;94782.88;;;24.79;100.00
8059;BME280;4072;42.668;23.396;2023-07-20T00:26:17;94805.41;;;24.83;99.13
8059;BME280;4072;42.668;23.396;2023-07-20T00:28:46;94786.00;;;24.75;98.93
8059;BME280;4072;42.668;23.396;2023-07-20T00:31:14;94775.72;;;24.55;100.00
8059;BME280;4072;42.668;23.396;2023-07-20T00:33:45;94779.03;;;24.54;100.00
8059;BME280;4072;42.668;23.396;2023-07-20T00:36:14;94775.72;;;24.55;100.00
8059;BME280;4072;42.668;23.396;2023-07-20T00:38:44;94776.59;;;24.50;100.00
8059;BME280;4072;42.668;23.396;2023-07-20T00:41:14;94772.06;;;24.04;100.00
8059;BME280;4072;42.668;23.396;2023-07-20T00:43:42;94787.69;;;23.61;100.00
8059;BME280;4072;42.668;23.396;2023-07-20T00:46:11;94775.72;;;23.25;100.00
8059;BME280;4072;42.668;23.396;2023-07-20T00:48:40;94752.69;;;22.88;100.00
8059;BME280;4072;42.668;23.396;2023-07-20T00:51:09;94779.41;;;22.93;100.00
8059;BME280;4072;42.668;23.396;2023-07-20T00:53:38;94768.63;;;22.69;100.00
8059;BME280;4072;42.668;23.396;2023-07-20T00:56:07;94771.41;;;22.69;100.00
8059;BME280;4072;42.668;23.396;2023-07-20T00:58:37;94750.41;;;22.53;100.00
8059;BME280;4072;42.668;23.396;2023-07-20T01:01:07;94710.13;;;22.24;100.00
8059;BME280;4072;42.668;23.396;2023-07-20T01:03:36;94766.94;;;22.66;100.00
8059;BME280;4072;42.668;23.396;2023-07-20T01:06:10;94744.69;;;22.51;100.00
8059;BME280;4072;42.668;23.396;2023-07-20T01:08:47;94768.84;;;22.58;100.00
8059;BME280;4072;42.668;23.396;2023-07-20T01:11:23;94773.53;;;22.50;100.00
8059;BME280;4072;42.668;23.396;2023-07-20T01:13:57;94782.97;;;22.55;100.00
8059;BME280;4072;42.668;23.396;2023-07-20T01:16:27;94779.03;;;22.37;100.00
8059;BME280;4072;42.668;23.396;2023-07-20T01:18:55;94782.81;;;22.47;100.00
8059;BME280;4072;42.668;23.396;2023-07-20T01:21:27;94740.84;;;22.15;100.00
8059;BME280;4072;42.668;23.396;2023-07-20T01:24:22;94776.88;;;22.43;100.00
8059;BME280;4072;42.668;23.396;2023-07-20T01:30:33;94755.88;;;21.88;100.00
8059;BME280;4072;42.668;23.396;2023-07-20T01:33:09;94767.44;;;22.00;100.00
8059;BME280;4072;42.668;23.396;2023-07-20T01:35:41;94701.53;;;21.44;100.00
8059;BME280;4072;42.668;23.396;2023-07-20T01:38:12;94772.50;;;21.96;100.00
8059;BME280;4072;42.668;23.396;2023-07-20T01:40:43;94786.56;;;21.79;100.00
8059;BME280;4072;42.668;23.396;2023-07-20T01:43:12;94714.81;;;21.27;100.00
8059;BME280;4072;42.668;23.396;2023-07-20T01:45:41;94781.06;;;21.79;100.00
8059;BME280;4072;42.668;23.396;2023-07-20T01:48:11;94766.03;;;21.80;100.00
8059;BME280;4072;42.668;23.396;2023-07-20T01:50:39;94767.53;;;21.81;100.00
8059;BME280;4072;42.668;23.396;2023-07-20T01:53:08;94768.47;;;21.84;100.00
8059;BME280;4072;42.668;23.396;2023-07-20T01:55:36;94765.09;;;21.91;100.00
8059;BME280;4072;42.668;23.396;2023-07-20T01:58:05;94779.41;;;21.89;100.00
8059;BME280;4072;42.668;23.396;2023-07-20T02:00:33;94765.63;;;21.89;100.00
8059;BME280;4072;42.668;23.396;2023-07-20T02:03:01;94764.78;;;21.94;100.00
8059;BME280;4072;42.668;23.396;2023-07-20T02:05:33;94760.44;;;21.99;100.00
8059;BME280;4072;42.668;23.396;2023-07-20T02:08:01;94759.69;;;21.98;100.00
8059;BME280;4072;42.668;23.396;2023-07-20T02:10:30;94751.22;;;21.96;100.00
8059;BME280;4072;42.668;23.396;2023-07-20T02:12:59;94760.88;;;22.03;100.00
8059;BME280;4072;42.668;23.396;2023-07-20T02:15:27;94748.38;;;22.02;100.00
8059;BME280;4072;42.668;23.396;2023-07-20T02:17:55;94760.56;;;22.06;100.00
8059;BME280;4072;42.668;23.396;2023-07-20T02:20:24;94745.31;;;22.18;100.00
8059;BME280;4072;42.668;23.396;2023-07-20T02:22:53;94757.91;;;22.27;100.00
8059;BME280;4072;42.668;23.396;2023-07-20T02:25:22;94759.72;;;22.24;100.00
8059;BME280;4072;42.668;23.396;2023-07-20T02:27:52;94757.91;;;22.27;100.00
8059;BME280;4072;42.668;23.396;2023-07-20T02:30:20;94759.28;;;22.33;100.00
8059;BME280;4072;42.668;23.396;2023-07-20T02:32:49;94754.22;;;22.24;100.00
8059;BME280;4072;42.668;23.396;2023-07-20T02:35:17;94742.84;;;22.28;100.00
8059;BME280;4072;42.668;23.396;2023-07-20T02:37:45;94765.03;;;22.35;100.00
8059;BME280;4072;42.668;23.396;2023-07-20T02:40:15;94750.28;;;22.33;100.00
8059;BME280;4072;42.668;23.396;2023-07-20T02:42:43;94753.16;;;22.27;100.00
8059;BME280;4072;42.668;23.396;2023-07-20T02:45:11;94742.44;;;22.24;100.00
8059;BME280;4072;42.668;23.396;2023-07-20T02:47:40;94734.94;;;22.24;100.00
8059;BME280;4072;42.668;23.396;2023-07-20T02:50:09;94734.69;;;22.22;100.00
8059;BME280;4072;42.668;23.396;2023-07-20T02:52:40;94727.09;;;22.28;100.00
8059;BME280;4072;42.668;23.396;2023-07-20T02:55:09;94731.13;;;22.27;100.00
8059;BME280;4072;42.668;23.396;2023-07-20T02:57:38;94720.94;;;22.22;100.00
8059;BME280;4072;42.668;23.396;2023-07-20T03:00:07;94726.25;;;22.20;100.00
8059;BME280;4072;42.668;23.396;2023-07-20T03:02:36;94734.28;;;22.18;100.00
8059;BME280;4072;42.668;23.396;2023-07-20T03:05:05;94737.25;;;22.20;100.00
8059;BME280;4072;42.668;23.396;2023-07-20T03:07:35;94724.53;;;22.17;100.00
8059;BME280;4072;42.668;23.396;2023-07-20T03:10:04;94728.34;;;22.14;100.00
8059;BME280;4072;42.668;23.396;2023-07-20T03:12:34;94732.38;;;22.13;100.00
8059;BME280;4072;42.668;23.396;2023-07-20T03:15:05;94748.91;;;22.13;100.00
8059;BME280;4072;42.668;23.396;2023-07-20T03:17:33;94738.94;;;22.10;100.00
8059;BME280;4072;42.668;23.396;2023-07-20T03:20:01;94704.00;;;21.92;100.00
8059;BME280;4072;42.668;23.396;2023-07-20T03:22:30;94673.78;;;21.74;100.00
8059;BME280;4072;42.668;23.396;2023-07-20T03:24:59;94754.09;;;22.30;100.00
8059;BME280;4072;42.668;23.396;2023-07-20T03:27:28;94754.63;;;22.28;100.00
8059;BME280;4072;42.668;23.396;2023-07-20T03:29:56;94749.66;;;22.27;100.00
8059;BME280;4072;42.668;23.396;2023-07-20T03:32:26;94763.44;;;22.53;100.00
8059;BME280;4072;42.668;23.396;2023-07-20T03:34:55;94767.25;;;22.37;100.00
8059;BME280;4072;42.668;23.396;2023-07-20T03:37:23;94754.19;;;21.98;100.00
8059;BME280;4072;42.668;23.396;2023-07-20T03:39:51;94760.97;;;21.84;100.00
8059;BME280;4072;42.668;23.396;2023-07-20T03:42:19;94761.59;;;21.77;100.00
8059;BME280;4072;42.668;23.396;2023-07-20T03:44:48;94760.25;;;21.65;100.00
8059;BME280;4072;42.668;23.396;2023-07-20T03:47:17;94756.84;;;21.59;100.00
8059;BME280;4072;42.668;23.396;2023-07-20T03:49:47;94726.44;;;21.20;100.00
8059;BME280;4072;42.668;23.396;2023-07-20T03:52:15;94723.75;;;21.33;100.00
8059;BME280;4072;42.668;23.396;2023-07-20T03:54:44;94761.28;;;21.62;100.00
8059;BME280;4072;42.668;23.396;2023-07-20T03:57:12;94773.06;;;21.63;100.00
8059;BME280;4072;42.668;23.396;2023-07-20T03:59:45;94764.03;;;21.62;100.00
8059;BME280;4072;42.668;23.396;2023-07-20T04:02:13;94765.31;;;21.61;100.00
8059;BME280;4072;42.668;23.396;2023-07-20T04:04:41;94755.50;;;21.66;100.00
8059;BME280;4072;42.668;23.396;2023-07-20T04:07:11;94772.59;;;21.77;100.00
8059;BME280;4072;42.668;23.396;2023-07-20T04:09:39;94765.31;;;21.93;100.00
8059;BME280;4072;42.668;23.396;2023-07-20T04:12:09;94756.88;;;22.04;100.00
8059;BME280;4072;42.668;23.396;2023-07-20T04:14:40;94758.97;;;22.37;100.00
8059;BME280;4072;42.668;23.396;2023-07-20T04:17:09;94758.03;;;22.34;100.00
8059;BME280;4072;42.668;23.396;2023-07-20T04:19:41;94756.97;;;22.37;100.00
8059;BME280;4072;42.668;23.396;2023-07-20T04:22:11;94753.38;;;22.42;100.00
8059;BME280;4072;42.668;23.396;2023-07-20T04:24:42;94661.84;;;21.84;100.00
8059;BME280;4072;42.668;23.396;2023-07-20T04:27:10;94735.56;;;22.69;100.00
8059;BME280;4072;42.668;23.396;2023-07-20T04:29:38;94745.47;;;22.85;100.00
8059;BME280;4072;42.668;23.396;2023-07-20T04:32:07;94739.31;;;22.92;100.00
8059;BME280;4072;42.668;23.396;2023-07-20T04:34:35;94748.25;;;22.72;100.00
8059;BME280;4072;42.668;23.396;2023-07-20T04:37:05;94725.72;;;22.95;100.00
8059;BME280;4072;42.668;23.396;2023-07-20T04:39:35;94746.06;;;23.05;100.00
8059;BME280;4072;42.668;23.396;2023-07-20T04:42:04;94738.94;;;23.09;100.00
8059;BME280;4072;42.668;23.396;2023-07-20T04:44:32;94738.38;;;23.24;100.00
8059;BME280;4072;42.668;23.396;2023-07-20T04:47:02;94717.13;;;23.19;100.00
8059;BME280;4072;42.668;23.396;2023-07-20T04:49:31;94734.41;;;23.53;100.00
8059;BME280;4072;42.668;23.396;2023-07-20T04:51:59;94727.41;;;23.93;100.00
8059;BME280;4072;42.668;23.396;2023-07-20T04:54:27;94740.03;;;24.37;100.00
8059;BME280;4072;42.668;23.396;2023-07-20T04:56:57;94734.09;;;24.61;100.00
8059;BME280;4072;42.668;23.396;2023-07-20T04:59:26;94719.03;;;24.69;100.00
8059;BME280;4072;42.668;23.396;2023-07-20T05:01:56;94733.25;;;25.24;100.00
8059;BME280;4072;42.668;23.396;2023-07-20T05:04:24;94736.28;;;25.71;100.00
8059;BME280;4072;42.668;23.396;2023-07-20T05:07:04;94732.03;;;25.85;100.00
8059;BME280;4072;42.668;23.396;2023-07-20T05:09:32;94736.28;;;26.01;100.00
8059;BME280;4072;42.668;23.396;2023-07-20T05:12:03;94740.34;;;26.30;96.13
8059;BME280;4072;42.668;23.396;2023-07-20T05:14:31;94734.34;;;26.56;92.41
8059;BME280;4072;42.668;23.396;2023-07-20T05:16:59;94739.16;;;26.71;92.52
8059;BME280;4072;42.668;23.396;2023-07-20T05:19:27;94744.09;;;26.87;91.54
8059;BME280;4072;42.668;23.396;2023-07-20T05:21:56;94745.38;;;27.33;87.82
8059;BME280;4072;42.668;23.396;2023-07-20T05:24:24;94740.81;;;27.77;83.63
8059;BME280;4072;42.668;23.396;2023-07-20T05:26:53;94744.66;;;28.06;80.62
8059;BME280;4072;42.668;23.396;2023-07-20T05:29:22;94687.47;;;27.71;79.97
8059;BME280;4072;42.668;23.396;2023-07-20T05:31:51;94745.75;;;28.53;76.34
8059;BME280;4072;42.668;23.396;2023-07-20T05:34:19;94745.09;;;28.45;76.80
8059;BME280;4072;42.668;23.396;2023-07-20T05:36:48;94713.16;;;28.29;81.50
8059;BME280;4072;42.668;23.396;2023-07-20T05:39:16;94750.66;;;28.45;83.07
8059;BME280;4072;42.668;23.396;2023-07-20T05:41:45;94745.75;;;28.87;79.84
8059;BME280;4072;42.668;23.396;2023-07-20T05:44:13;94741.66;;;28.88;80.66
8059;BME280;4072;42.668;23.396;2023-07-20T05:46:43;94753.59;;;28.81;79.04
8059;BME280;4072;42.668;23.396;2023-07-20T05:49:22;94756.56;;;28.66;79.70
8059;BME280;4072;42.668;23.396;2023-07-20T05:51:54;94773.09;;;28.47;81.84
8059;BME280;4072;42.668;23.396;2023-07-20T05:54:24;94768.44;;;28.25;84.79
8059;BME280;4072;42.668;23.396;2023-07-20T05:56:52;94764.97;;;28.17;86.46
8059;BME280;4072;42.668;23.396;2023-07-20T05:59:20;94764.13;;;28.31;83.18
8059;BME280;4072;42.668;23.396;2023-07-20T06:01:51;94762.81;;;28.32;80.99
8059;BME280;4072;42.668;23.396;2023-07-20T06:04:21;94753.31;;;28.35;82.95
8059;BME280;4072;42.668;23.396;2023-07-20T06:06:49;94756.81;;;28.60;78.64
8059;BME280;4072;42.668;23.396;2023-07-20T06:09:18;94754.09;;;28.70;74.48
8059;BME280;4072;42.668;23.396;2023-07-20T06:11:46;94731.19;;;28.45;76.14
8059;BME280;4072;42.668;23.396;2023-07-20T06:14:14;94759.66;;;28.87;74.46
8059;BME280;4072;42.668;23.396;2023-07-20T06:16:43;94751.16;;;29.02;73.41
8059;BME280;4072;42.668;23.396;2023-07-20T06:19:13;94758.34;;;28.88;74.62
8059;BME280;4072;42.668;23.396;2023-07-20T06:21:41;94755.91;;;29.09;74.42
8059;BME280;4072;42.668;23.396;2023-07-20T06:24:09;94752.72;;;29.39;71.05
8059;BME280;4072;42.668;23.396;2023-07-20T06:26:37;94745.75;;;29.74;70.64
8059;BME280;4072;42.668;23.396;2023-07-20T06:29:08;94672.84;;;29.51;68.71
8059;BME280;4072;42.668;23.396;2023-07-20T06:31:37;94733.00;;;29.54;70.58
8059;BME280;4072;42.668;23.396;2023-07-20T06:34:06;94738.53;;;30.07;68.42
8059;BME280;4072;42.668;23.396;2023-07-20T06:36:35;94731.25;;;30.21;65.90
8059;BME280;4072;42.668;23.396;2023-07-20T06:39:04;94733.63;;;29.98;67.50
8059;BME280;4072;42.668;23.396;2023-07-20T06:41:35;94731.84;;;30.29;64.05
8059;BME280;4072;42.668;23.396;2023-07-20T06:44:06;94734.78;;;30.31;65.87
8059;BME280;4072;42.668;23.396;2023-07-20T06:46:34;94735.97;;;30.28;63.83
8059;BME280;4072;42.668;23.396;2023-07-20T06:49:06;94675.03;;;29.79;66.41
8059;BME280;4072;42.668;23.396;2023-07-20T06:51:38;94749.44;;;30.22;64.83
8059;BME280;4072;42.668;23.396;2023-07-20T06:54:07;94713.81;;;29.94;66.39
8059;BME280;4072;42.668;23.396;2023-07-20T06:56:35;94742.94;;;30.10;65.74
8059;BME280;4072;42.668;23.396;2023-07-20T06:59:12;94743.81;;;30.03;65.33
8059;BME280;4072;42.668;23.396;2023-07-20T07:01:40;94742.16;;;30.00;66.33
8059;BME280;4072;42.668;23.396;2023-07-20T07:04:08;94763.88;;;29.92;68.40
8059;BME280;4072;42.668;23.396;2023-07-20T07:06:36;94768.69;;;29.82;67.28
8059;BME280;4072;42.668;23.396;2023-07-20T07:09:06;94761.81;;;29.92;70.13
8059;BME280;4072;42.668;23.396;2023-07-20T07:11:36;94767.09;;;29.98;66.72
8059;BME280;4072;42.668;23.396;2023-07-20T07:14:04;94770.03;;;29.90;67.59
8059;BME280;4072;42.668;23.396;2023-07-20T07:16:34;94761.41;;;29.43;69.32
8059;BME280;4072;42.668;23.396;2023-07-20T07:19:05;94747.72;;;28.77;72.71
8059;BME280;4072;42.668;23.396;2023-07-20T07:21:35;94802.75;;;28.69;76.47
8059;BME280;4072;42.668;23.396;2023-07-20T07:24:03;94801.25;;;28.26;79.51
8059;BME280;4072;42.668;23.396;2023-07-20T07:26:35;94797.28;;;28.12;82.43
8059;BME280;4072;42.668;23.396;2023-07-20T07:29:03;94806.38;;;28.37;82.07
8059;BME280;4072;42.668;23.396;2023-07-20T07:31:34;94809.44;;;28.66;79.93
8059;BME280;4072;42.668;23.396;2023-07-20T07:34:04;94806.03;;;29.09;75.25
8059;BME280;4072;42.668;23.396;2023-07-20T07:36:33;94805.22;;;29.16;74.73
8059;BME280;4072;42.668;23.396;2023-07-20T07:39:01;94801.13;;;29.17;67.73
8059;BME280;4072;42.668;23.396;2023-07-20T07:41:51;94796.38;;;29.10;70.94
8059;BME280;4072;42.668;23.396;2023-07-20T07:44:19;94789.25;;;29.16;70.51
8059;BME280;4072;42.668;23.396;2023-07-20T07:46:48;94793.28;;;29.32;69.00
8059;BME280;4072;42.668;23.396;2023-07-20T07:49:16;94790.44;;;29.40;71.29
8059;BME280;4072;42.668;23.396;2023-07-20T07:51:45;94796.09;;;29.59;69.40
8059;BME280;4072;42.668;23.396;2023-07-20T07:54:14;94777.16;;;30.10;65.09
8059;BME280;4072;42.668;23.396;2023-07-20T07:56:42;94736.72;;;30.28;64.44
8059;BME280;4072;42.668;23.396;2023-07-20T07:59:12;94739.81;;;30.42;63.21
8059;BME280;4072;42.668;23.396;2023-07-20T08:01:42;94755.56;;;30.56;62.56
8059;BME280;4072;42.668;23.396;2023-07-20T08:04:10;94759.22;;;30.49;61.38
8059;BME280;4072;42.668;23.396;2023-07-20T08:06:39;94749.50;;;30.41;63.68
8059;BME280;4072;42.668;23.396;2023-07-20T08:09:08;94754.22;;;30.48;60.80
8059;BME280;4072;42.668;23.396;2023-07-20T08:11:39;94784.28;;;30.30;61.64
8059;BME280;4072;42.668;23.396;2023-07-20T08:14:07;94785.50;;;30.37;61.12
8059;BME280;4072;42.668;23.396;2023-07-20T08:16:36;94803.41;;;30.43;62.73
8059;BME280;4072;42.668;23.396;2023-07-20T08:19:04;94801.03;;;30.30;63.83
8059;BME280;4072;42.668;23.396;2023-07-20T08:21:33;94805.00;;;30.01;64.88
8059;BME280;4072;42.668;23.396;2023-07-20T08:24:01;94796.63;;;30.01;65.97
8059;BME280;4072;42.668;23.396;2023-07-20T08:26:30;94801.06;;;30.04;66.87
8059;BME280;4072;42.668;23.396;2023-07-20T08:28:58;94802.84;;;30.09;69.99
8059;BME280;4072;42.668;23.396;2023-07-20T08:31:27;94787.06;;;30.21;70.96
8059;BME280;4072;42.668;23.396;2023-07-20T08:33:58;94788.13;;;30.35;74.38
8059;BME280;4072;42.668;23.396;2023-07-20T08:36:29;94789.56;;;30.26;74.09
8059;BME280;4072;42.668;23.396;2023-07-20T08:38:57;94801.09;;;30.13;71.88
8059;BME280;4072;42.668;23.396;2023-07-20T08:41:26;94788.31;;;30.10;68.87
8059;BME280;4072;42.668;23.396;2023-07-20T08:43:56;94776.34;;;30.17;64.30
8059;BME280;4072;42.668;23.396;2023-07-20T08:46:26;94795.44;;;30.30;61.26
8059;BME280;4072;42.668;23.396;2023-07-20T08:48:57;94788.31;;;30.10;61.68
8059;BME280;4072;42.668;23.396;2023-07-20T08:51:30;94789.16;;;30.30;59.90
8059;BME280;4072;42.668;23.396;2023-07-20T08:53:59;94795.16;;;30.36;54.56
8059;BME280;4072;42.668;23.396;2023-07-20T08:56:27;94782.94;;;30.22;54.50
8059;BME280;4072;42.668;23.396;2023-07-20T08:58:58;94778.06;;;29.77;55.12
8059;BME280;4072;42.668;23.396;2023-07-20T09:01:28;94782.28;;;29.51;55.46
8059;BME280;4072;42.668;23.396;2023-07-20T09:03:58;94775.41;;;29.79;54.01
8059;BME280;4072;42.668;23.396;2023-07-20T09:06:26;94779.38;;;29.85;53.04
8059;BME280;4072;42.668;23.396;2023-07-20T09:08:55;94787.28;;;29.53;51.98
8059;BME280;4072;42.668;23.396;2023-07-20T09:11:23;94757.63;;;29.74;53.04
8059;BME280;4072;42.668;23.396;2023-07-20T09:14:02;94775.34;;;29.96;51.62
8059;BME280;4072;42.668;23.396;2023-07-20T09:16:31;94772.41;;;30.30;49.74
8059;BME280;4072;42.668;23.396;2023-07-20T09:19:01;94766.50;;;30.26;50.08
8059;BME280;4072;42.668;23.396;2023-07-20T09:21:29;94767.97;;;30.27;50.41
8059;BME280;4072;42.668;23.396;2023-07-20T09:24:00;94771.78;;;30.22;50.23
8059;BME280;4072;42.668;23.396;2023-07-20T09:26:29;94756.56;;;30.42;50.06
8059;BME280;4072;42.668;23.396;2023-07-20T09:28:57;94754.22;;;30.48;48.77
8059;BME280;4072;42.668;23.396;2023-07-20T09:31:27;94747.75;;;30.55;49.21
8059;BME280;4072;42.668;23.396;2023-07-20T09:34:07;94736.03;;;30.66;49.39
8059;BME280;4072;42.668;23.396;2023-07-20T09:36:36;94741.44;;;30.45;51.43
8059;BME280;4072;42.668;23.396;2023-07-20T09:39:08;94755.53;;;30.47;51.45
8059;BME280;4072;42.668;23.396;2023-07-20T09:41:40;94728.53;;;30.68;48.25
8059;BME280;4072;42.668;23.396;2023-07-20T09:44:14;94747.94;;;31.14;48.56
8059;BME280;4072;42.668;23.396;2023-07-20T09:46:45;94738.50;;;31.38;48.13
8059;BME280;4072;42.668;23.396;2023-07-20T09:49:22;94743.22;;;31.85;45.61
8059;BME280;4072;42.668;23.396;2023-07-20T09:51:53;94726.63;;;31.78;43.99
8059;BME280;4072;42.668;23.396;2023-07-20T09:54:24;94736.50;;;31.69;44.72
8059;BME280;4072;42.668;23.396;2023-07-20T09:56:55;94668.56;;;31.57;44.80
8059;BME280;4072;42.668;23.396;2023-07-20T09:59:25;94717.66;;;32.40;41.34
8059;BME280;4072;42.668;23.396;2023-07-20T10:01:55;94661.69;;;32.73;39.75
8059;BME280;4072;42.668;23.396;2023-07-20T10:04:28;94709.38;;;33.17;39.53
8059;BME280;4072;42.668;23.396;2023-07-20T10:06:59;94679.44;;;32.98;38.41
8059;BME280;4072;42.668;23.396;2023-07-20T10:09:31;94708.53;;;33.14;36.92
8059;BME280;4072;42.668;23.396;2023-07-20T10:11:59;94720.59;;;33.17;36.94
8059;BME280;4072;42.668;23.396;2023-07-20T10:14:50;94708.53;;;33.14;35.61
8059;BME280;4072;42.668;23.396;2023-07-20T10:17:21;94719.72;;;33.14;35.49
8059;BME280;4072;42.668;23.396;2023-07-20T10:19:55;94720.72;;;32.86;36.16
8059;BME280;4072;42.668;23.396;2023-07-20T10:22:26;94717.50;;;32.80;37.64
8059;BME280;4072;42.668;23.396;2023-07-20T10:24:54;94723.09;;;33.01;38.18
8059;BME280;4072;42.668;23.396;2023-07-20T10:27:26;94735.91;;;33.04;38.59
8059;BME280;4072;42.668;23.396;2023-07-20T10:29:56;94701.00;;;32.63;38.51
8059;BME280;4072;42.668;23.396;2023-07-20T10:32:26;94744.19;;;32.81;37.80
8059;BME280;4072;42.668;23.396;2023-07-20T10:34:56;94729.25;;;32.67;37.97
8059;BME280;4072;42.668;23.396;2023-07-20T10:37:46;94715.38;;;32.69;38.63
8059;BME280;4072;42.668;23.396;2023-07-20T10:40:29;94721.13;;;32.50;38.89
8059;BME280;4072;42.668;23.396;2023-07-20T10:43:00;94685.28;;;32.07;38.79
8059;BME280;4072;42.668;23.396;2023-07-20T10:45:48;94744.81;;;32.28;39.34
8059;BME280;4072;42.668;23.396;2023-07-20T10:48:18;94712.22;;;32.02;38.89
8059;BME280;4072;42.668;23.396;2023-07-20T10:51:10;94715.31;;;32.06;39.48
8059;BME280;4072;42.668;23.396;2023-07-20T10:53:40;94664.47;;;31.89;38.63
8059;BME280;4072;42.668;23.396;2023-07-20T10:56:11;94651.41;;;31.42;42.66
8059;BME280;4072;42.668;23.396;2023-07-20T10:58:40;94702.38;;;31.02;41.68
8059;BME280;4072;42.668;23.396;2023-07-20T11:01:14;94701.88;;;31.34;41.61
8059;BME280;4072;42.668;23.396;2023-07-20T11:03:48;94644.78;;;31.37;39.25
8059;BME280;4072;42.668;23.396;2023-07-20T11:06:33;94673.44;;;31.87;40.33
8059;BME280;4072;42.668;23.396;2023-07-20T11:09:09;94663.41;;;32.15;39.54
8059;BME280;4072;42.668;23.396;2023-07-20T11:11:39;94660.50;;;32.13;38.74
8059;BME280;4072;42.668;23.396;2023-07-20T11:14:10;94656.28;;;32.02;37.65
8059;BME280;4072;42.668;23.396;2023-07-20T11:16:43;94651.88;;;32.20;39.56
8059;BME280;4072;42.668;23.396;2023-07-20T11:19:17;94647.69;;;32.31;39.64
8059;BME280;4072;42.668;23.396;2023-07-20T11:21:52;94644.03;;;32.82;38.34
8059;BME280;4072;42.668;23.396;2023-07-20T11:24:28;94648.13;;;32.69;38.52
8059;BME280;4072;42.668;23.396;2023-07-20T11:26:57;94649.88;;;32.74;39.38
8059;BME280;4072;42.668;23.396;2023-07-20T11:29:26;94604.91;;;32.40;39.57
8059;BME280;4072;42.668;23.396;2023-07-20T11:31:59;94642.53;;;32.69;39.47
8059;BME280;4072;42.668;23.396;2023-07-20T11:34:33;94573.66;;;32.22;39.01
8059;BME280;4072;42.668;23.396;2023-07-20T11:37:03;94637.09;;;33.04;39.10
8059;BME280;4072;42.668;23.396;2023-07-20T11:39:36;94637.59;;;33.12;39.71
8059;BME280;4072;42.668;23.396;2023-07-20T11:42:05;94624.75;;;32.97;40.11
8059;BME280;4072;42.668;23.396;2023-07-20T11:44:33;94618.28;;;32.62;40.98
8059;BME280;4072;42.668;23.396;2023-07-20T11:47:04;94614.97;;;32.54;41.09
8059;BME280;4072;42.668;23.396;2023-07-20T11:49:35;94614.03;;;32.19;40.99
8059;BME280;4072;42.668;23.396;2023-07-20T11:52:07;94616.84;;;31.98;42.81
8059;BME280;4072;42.668;23.396;2023-07-20T11:54:38;94614.97;;;32.12;43.91
8059;BME280;4072;42.668;23.396;2023-07-20T11:57:16;94607.75;;;31.88;43.75
8059;BME280;4072;42.668;23.396;2023-07-20T11:59:52;94596.25;;;31.63;44.81
8059;BME280;4072;42.668;23.396;2023-07-20T12:02:22;94600.97;;;31.91;43.32
8059;BME280;4072;42.668;23.396;2023-07-20T12:04:51;94589.09;;;32.23;42.29
8059;BME280;4072;42.668;23.396;2023-07-20T12:07:21;94592.00;;;32.35;42.40
8059;BME280;4072;42.668;23.396;2023-07-20T12:10:03;94588.72;;;32.17;41.83
8059;BME280;4072;42.668;23.396;2023-07-20T12:12:31;94590.44;;;31.80;42.45
8059;BME280;4072;42.668;23.396;2023-07-20T12:15:13;94558.56;;;31.43;43.27
8059;BME280;4072;42.668;23.396;2023-07-20T12:17:42;94548.97;;;31.46;42.10
8059;BME280;4072;42.668;23.396;2023-07-20T12:20:11;94584.56;;;31.76;42.26
8059;BME280;4072;42.668;23.396;2023-07-20T12:22:43;94576.31;;;32.20;39.95
8059;BME280;4072;42.668;23.396;2023-07-20T12:25:11;94579.50;;;32.26;40.50
8059;BME280;4072;42.668;23.396;2023-07-20T12:27:40;94584.66;;;32.09;40.78
8059;BME280;4072;42.668;23.396;2023-07-20T12:30:09;94581.28;;;32.10;40.17
8059;BME280;4072;42.668;23.396;2023-07-20T12:32:37;94560.84;;;32.19;40.38
8059;BME280;4072;42.668;23.396;2023-07-20T12:35:05;94581.06;;;32.71;39.05
8059;BME280;4072;42.668;23.396;2023-07-20T12:37:34;94570.78;;;33.08;38.82
8059;BME280;4072;42.668;23.396;2023-07-20T12:40:04;94574.22;;;33.30;36.68
8059;BME280;4072;42.668;23.396;2023-07-20T12:42:38;94570.81;;;33.78;35.86
8059;BME280;4072;42.668;23.396;2023-07-20T12:45:08;94572.53;;;33.71;36.62
8059;BME280;4072;42.668;23.396;2023-07-20T12:47:37;94571.69;;;33.92;37.08
8059;BME280;4072;42.668;23.396;2023-07-20T12:50:10;94569.56;;;34.04;34.85
8059;BME280;4072;42.668;23.396;2023-07-20T12:52:40;94561.16;;;34.04;35.38
8059;BME280;4072;42.668;23.396;2023-07-20T12:55:11;94556.66;;;33.99;36.14
8059;BME280;4072;42.668;23.396;2023-07-20T12:57:40;94556.94;;;33.57;35.54
8059;BME280;4072;42.668;23.396;2023-07-20T13:00:10;94545.13;;;33.47;33.88
8059;BME280;4072;42.668;23.396;2023-07-20T13:02:39;94561.06;;;33.79;34.97
8059;BME280;4072;42.668;23.396;2023-07-20T13:05:08;94564.75;;;33.70;34.42
8059;BME280;4072;42.668;23.396;2023-07-20T13:07:37;94508.31;;;32.50;35.64
8059;BME280;4072;42.668;23.396;2023-07-20T13:10:13;94557.25;;;32.49;35.30
8059;BME280;4072;42.668;23.396;2023-07-20T13:12:42;94540.88;;;32.34;36.20
8059;BME280;4072;42.668;23.396;2023-07-20T13:15:12;94551.16;;;32.53;35.21
8059;BME280;4072;42.668;23.396;2023-07-20T13:17:41;94546.13;;;32.19;37.19
8059;BME280;4072;42.668;23.396;2023-07-20T13:20:10;94543.41;;;32.09;37.42
8059;BME280;4072;42.668;23.396;2023-07-20T13:22:39;94548.84;;;32.49;36.62
8059;BME280;4072;42.668;23.396;2023-07-20T13:25:09;94550.47;;;32.64;36.64
8059;BME280;4072;42.668;23.396;2023-07-20T13:27:39;94556.41;;;32.58;36.74